»·PEaware :: N1422E KSNA-KCRQ

N1422E :: KSNA-KCRQ

FLIGHT INFORMATION

Flight Status: Arrived
Operator: Privately registered:
United States
More flights under this callsign
Pilot: Jonathan B. (787)
Aircraft: BEECH AIRCRAFT BARON
(BE58)
More flights by this aircraft type
Origin: KSNA John Wayne-Orange Co
United States
Destination: KCRQ McClellan-Palomar
United States
More flights between these airports :: More routes between these airports
Route: V23 OCN
File this flight plan on PilotEdge
Remarks: none
Altitude:
(Current/Filed)
5,000ft
Speed:
(Current/Filed)
160kts
Departed: 19-Jan-20 02:24 PM
Arrived: 19-Jan-20 03:06 PM
Distance/Time
Traveled:
44nm/0:42
Distance/Time
To Go:
Arrived

Flight Plot

Page will automatically refresh every two minutes.


Map Options




Map Legend


Flown Route
Filed Route
Departure Airport
Arrival Airport
Navaid (VOR, NDB)
Fix

Horizontal Profiles

Position Reports

Time Latitude Longitude Heading Altitude Ground
Speed
19-Jan-20 14:14 33.676088 -117.870901 219 60ft 0kts
19-Jan-20 14:15 33.676088 -117.870901 219 60ft 0kts
19-Jan-20 14:16 33.676088 -117.870901 219 60ft 0kts
19-Jan-20 14:17 33.676088 -117.870901 219 60ft 0kts
19-Jan-20 14:18 33.676088 -117.870901 219 60ft 0kts
19-Jan-20 14:18 33.676088 -117.870901 219 60ft 0kts
19-Jan-20 14:20 33.676088 -117.870901 219 60ft 0kts
19-Jan-20 14:20 33.676474 -117.869839 27 60ft 12kts
19-Jan-20 14:21 33.680507 -117.867444 28 60ft 14kts
19-Jan-20 14:22 33.681212 -117.866432 114 60ft 7kts
19-Jan-20 14:23 33.670378 -117.872019 208 268ft 78kts
19-Jan-20 14:24 33.651270 -117.877765 199 1246ft 71kts
19-Jan-20 14:25 33.630391 -117.878362 174 2218ft 81kts
19-Jan-20 14:26 33.606149 -117.875090 181 3273ft 91kts
19-Jan-20 14:27 33.592074 -117.857871 77 4132ft 125kts
19-Jan-20 14:28 33.585060 -117.823012 130 4930ft 121kts
19-Jan-20 14:29 33.564274 -117.790170 129 4968ft 122kts
19-Jan-20 14:30 33.542986 -117.757616 145 4948ft 116kts
19-Jan-20 14:31 33.519687 -117.725217 135 4901ft 159kts
19-Jan-20 14:32 33.489869 -117.681253 132 5038ft 175kts
19-Jan-20 14:33 33.456118 -117.642650 139 5054ft 163kts
19-Jan-20 14:34 33.423750 -117.606547 137 4947ft 155kts
19-Jan-20 14:35 33.390322 -117.576071 146 4869ft 144kts
19-Jan-20 14:36 33.359165 -117.543049 140 4724ft 145kts
19-Jan-20 14:37 33.333341 -117.509305 142 4951ft 139kts
19-Jan-20 14:38 33.303428 -117.480347 148 5005ft 138kts
19-Jan-20 14:39 33.272757 -117.450744 149 4963ft 141kts
19-Jan-20 14:40 33.244499 -117.418260 151 4653ft 152kts
19-Jan-20 14:41 33.214726 -117.393936 116 4836ft 113kts
19-Jan-20 14:42 33.212896 -117.347708 93 4412ft 114kts
19-Jan-20 14:43 33.215034 -117.305958 90 4892ft 143kts
19-Jan-20 14:44 33.219364 -117.255942 91 5123ft 158kts
19-Jan-20 14:45 33.222136 -117.200959 83 5073ft 170kts
19-Jan-20 14:46 33.225741 -117.145600 87 4999ft 163kts
19-Jan-20 14:47 33.230040 -117.092231 88 4914ft 157kts
19-Jan-20 14:48 33.234086 -117.042727 81 5149ft 149kts
19-Jan-20 14:49 33.239252 -116.990302 91 4979ft 164kts
19-Jan-20 14:50 33.236729 -116.937698 87 5014ft 153kts
19-Jan-20 14:51 33.235027 -116.886632 91 5003ft 152kts
19-Jan-20 14:52 33.233176 -116.836625 110 5111ft 148kts
19-Jan-20 14:53 33.198626 -116.843851 241 4972ft 174kts
19-Jan-20 14:54 33.182526 -116.898294 270 4885ft 176kts
19-Jan-20 14:55 33.179634 -116.955122 256 4410ft 153kts
19-Jan-20 14:56 33.170690 -116.996257 264 4081ft 114kts
19-Jan-20 14:57 33.164551 -117.032504 258 3991ft 103kts
19-Jan-20 14:58 33.160514 -117.065623 265 3517ft 101kts
19-Jan-20 14:59 33.156986 -117.097559 257 3163ft 95kts
19-Jan-20 15:00 33.151829 -117.128839 257 2986ft 99kts
19-Jan-20 15:01 33.147080 -117.162451 258 2369ft 102kts
19-Jan-20 15:02 33.141862 -117.196087 256 1681ft 103kts
19-Jan-20 15:03 33.136325 -117.229143 260 1108ft 97kts
19-Jan-20 15:04 33.131853 -117.256545 259 757ft 81kts
19-Jan-20 15:05 33.128413 -117.278936 228 335ft 16kts

Navigation Log

Ident Type
Flight plan parsing failed, navigation log unavailable